Time;durP1;ratioP1;P1;durP2;ratioP2;P2;SDS_P1;SDS_P2;PMS_P1;PMS_P2;Temp;Humidity;BMP_temperature;BMP_pressure;BME280_temperature;BME280_humidity;BME280_pressure;Samples;Min_cycle;Max_cycle;Signal;HPM_P1;HPM_P2
2021/07/19 00:00:30;;;;;;;;;;;;;;;26.32;46.63;99867.59;1786440;79;20170;-55
2021/07/19 00:02:58;;;;;;;;;;;;;;;26.33;46.65;99858.65;1780687;79;20260;-56
2021/07/19 00:05:27;;;;;;;;;;;;;;;26.35;46.64;99861.26;1780918;79;20487;-56
2021/07/19 00:07:53;;;;;;;;;;;;;;;26.39;46.68;99861.91;1782049;79;20199;-56
2021/07/19 00:10:19;;;;;;;;;;;;;;;26.40;46.67;99862.91;1780717;79;20235;-56
2021/07/19 00:12:45;;;;;;;;;;;;;;;26.42;46.70;99866.14;1782147;79;20175;-56
2021/07/19 00:15:14;;;;;;;;;;;;;;;26.44;46.72;99871.34;1779311;79;21153;-56
2021/07/19 00:17:41;;;;;;;;;;;;;;;26.46;46.74;99870.36;1779872;79;20238;-56
2021/07/19 00:20:08;;;;;;;;;;;;;;;26.47;46.74;99871.97;1784504;79;20304;-55
2021/07/19 00:22:35;;;;;;;;;;;;;;;26.50;46.77;99882.36;1786052;80;20188;-56
2021/07/19 00:25:01;;;;;;;;;;;;;;;26.51;46.79;99877.81;1781388;79;20402;-56
2021/07/19 00:27:27;;;;;;;;;;;;;;;26.53;46.82;99881.01;1785064;79;21154;-56
2021/07/19 00:29:53;;;;;;;;;;;;;;;26.53;46.82;99874.03;1786951;80;20166;-56
2021/07/19 00:32:19;;;;;;;;;;;;;;;26.55;46.85;99874.47;1785355;79;20206;-56
2021/07/19 00:34:45;;;;;;;;;;;;;;;26.58;46.89;99878.47;1787010;79;20147;-55
2021/07/19 00:37:10;;;;;;;;;;;;;;;26.58;46.89;99882.06;1783630;79;20205;-56
2021/07/19 00:39:36;;;;;;;;;;;;;;;26.61;46.92;99874.91;1780498;79;21210;-55
2021/07/19 00:42:03;;;;;;;;;;;;;;;26.61;46.93;99872.93;1780661;79;20759;-56
2021/07/19 00:44:29;;;;;;;;;;;;;;;26.63;46.97;99876.16;1783669;79;20191;-56
2021/07/19 00:46:55;;;;;;;;;;;;;;;26.64;46.98;99874.17;1779771;79;20241;-56
2021/07/19 00:49:22;;;;;;;;;;;;;;;26.66;47.00;99877.38;1784581;79;20478;-56
2021/07/19 00:51:48;;;;;;;;;;;;;;;26.65;47.03;99877.96;1777778;79;21060;-56
2021/07/19 00:54:16;;;;;;;;;;;;;;;26.67;47.04;99881.77;1784862;80;20231;-56
2021/07/19 00:56:42;;;;;;;;;;;;;;;26.69;47.06;99891.98;1786959;79;20155;-56
2021/07/19 00:59:08;;;;;;;;;;;;;;;26.70;47.07;99890.77;1782012;79;20602;-56
2021/07/19 01:01:36;;;;;;;;;;;;;;;26.71;47.12;99895.17;1786805;80;20163;-56
2021/07/19 01:04:02;;;;;;;;;;;;;;;26.71;47.12;99899.36;1784475;79;21119;-56
2021/07/19 01:06:31;;;;;;;;;;;;;;;26.73;47.15;99897.00;1784936;79;20175;-56
2021/07/19 01:08:58;;;;;;;;;;;;;;;26.73;47.17;99902.59;1758314;80;20188;-56
2021/07/19 01:11:24;;;;;;;;;;;;;;;26.74;47.18;99898.00;1783314;79;20453;-56
2021/07/19 01:13:50;;;;;;;;;;;;;;;26.75;47.19;99898.81;1782411;79;20235;-56
2021/07/19 01:16:16;;;;;;;;;;;;;;;26.76;47.22;99900.42;1781906;79;20949;-56
2021/07/19 01:18:42;;;;;;;;;;;;;;;26.76;47.23;99895.64;1775904;79;20210;-55
2021/07/19 01:21:18;;;;;;;;;;;;;;;26.77;47.25;99897.84;1787087;79;20693;-56
2021/07/19 01:24:02;;;;;;;;;;;;;;;26.78;47.28;99900.83;1784734;79;20088;-56
2021/07/19 01:26:44;;;;;;;;;;;;;;;26.77;47.29;99893.08;1712755;80;20187;-56
2021/07/19 01:29:11;;;;;;;;;;;;;;;26.79;47.29;99899.65;1784639;79;21961;-56
2021/07/19 01:31:39;;;;;;;;;;;;;;;26.79;47.33;99899.65;1758251;79;20187;-56
2021/07/19 01:34:06;;;;;;;;;;;;;;;26.80;47.33;99892.89;1759243;79;20239;-56
2021/07/19 01:36:34;;;;;;;;;;;;;;;26.80;47.37;99893.70;1786635;79;20485;-56
2021/07/19 01:39:00;;;;;;;;;;;;;;;26.81;47.39;99890.31;1777854;79;20189;-56
2021/07/19 01:41:27;;;;;;;;;;;;;;;26.81;47.41;99884.73;1780954;79;21178;-56
2021/07/19 01:43:56;;;;;;;;;;;;;;;26.85;47.43;99893.17;1756986;80;20232;-56
2021/07/19 01:46:22;;;;;;;;;;;;;;;26.84;47.46;99886.75;1772639;79;20224;-54
2021/07/19 01:48:48;;;;;;;;;;;;;;;26.84;47.48;99888.15;1776071;79;20170;-56
2021/07/19 01:51:14;;;;;;;;;;;;;;;26.85;47.51;99886.20;1772408;79;20278;-56
2021/07/19 01:53:41;;;;;;;;;;;;;;;26.85;47.54;99888.98;1773219;79;22550;-56
2021/07/19 01:56:07;;;;;;;;;;;;;;;26.86;47.57;99895.59;1741938;79;20272;-56
2021/07/19 01:58:33;;;;;;;;;;;;;;;26.86;47.60;99896.98;1777201;79;20732;-56
2021/07/19 02:00:58;;;;;;;;;;;;;;;26.87;47.63;99899.97;1773962;79;21235;-56
2021/07/19 02:03:24;;;;;;;;;;;;;;;26.88;47.65;99897.39;1776637;79;20198;-56
2021/07/19 02:05:51;;;;;;;;;;;;;;;26.88;47.67;99896.00;1778413;79;21192;-55
2021/07/19 02:08:17;;;;;;;;;;;;;;;26.89;47.71;99904.59;1773523;79;20476;-56
2021/07/19 02:10:51;;;;;;;;;;;;;;;26.90;47.72;99898.42;1780143;79;20237;-55
2021/07/19 02:13:17;;;;;;;;;;;;;;;26.89;47.77;99901.80;1777145;79;20230;-56
2021/07/19 02:15:43;;;;;;;;;;;;;;;26.91;47.76;99898.02;1778234;79;20184;-56
2021/07/19 02:18:11;;;;;;;;;;;;;;;26.90;47.79;99890.85;1772488;79;21025;-55
2021/07/19 02:20:37;;;;;;;;;;;;;;;26.91;47.83;99898.61;1773486;80;20149;-56
2021/07/19 02:23:04;;;;;;;;;;;;;;;26.91;47.84;99895.23;1775376;79;20214;-56
2021/07/19 02:25:30;;;;;;;;;;;;;;;26.92;47.85;99887.07;1773835;79;20240;-55
2021/07/19 02:27:56;;;;;;;;;;;;;;;26.93;47.89;99885.89;1775004;79;20167;-56
2021/07/19 02:30:22;;;;;;;;;;;;;;;26.93;47.91;99881.70;1774690;79;21325;-56
2021/07/19 02:32:50;;;;;;;;;;;;;;;26.94;47.95;99888.09;1781572;79;20479;-56
2021/07/19 02:35:16;;;;;;;;;;;;;;;26.94;47.97;99883.31;1775186;79;20250;-56
2021/07/19 02:37:43;;;;;;;;;;;;;;;26.94;48.00;99876.34;1779996;79;20190;-55
2021/07/19 02:40:11;;;;;;;;;;;;;;;26.95;48.02;99878.52;1776130;79;20179;-56
2021/07/19 02:42:39;;;;;;;;;;;;;;;26.95;48.04;99878.52;1743405;80;21145;-55
2021/07/19 02:45:07;;;;;;;;;;;;;;;26.95;48.07;99875.12;1773007;79;20200;-56
2021/07/19 02:47:33;;;;;;;;;;;;;;;26.96;48.09;99887.91;1770191;79;20481;-57
2021/07/19 02:49:59;;;;;;;;;;;;;;;26.96;48.12;99900.47;1774783;79;20245;-56
2021/07/19 02:52:25;;;;;;;;;;;;;;;26.97;48.14;99913.84;1777228;79;20207;-56
2021/07/19 02:54:51;;;;;;;;;;;;;;;26.97;48.15;99916.63;1773700;80;21346;-56
2021/07/19 02:57:17;;;;;;;;;;;;;;;26.98;48.19;99922.44;1774758;79;20270;-56
2021/07/19 02:59:43;;;;;;;;;;;;;;;26.98;48.21;99928.82;1777006;79;20269;-56
2021/07/19 03:02:09;;;;;;;;;;;;;;;26.99;48.26;99938.78;1777074;79;20227;-56
2021/07/19 03:04:35;;;;;;;;;;;;;;;26.99;48.27;99938.00;1744984;79;20208;-56
2021/07/19 03:07:01;;;;;;;;;;;;;;;26.99;48.30;99934.59;1774033;79;21153;-57
2021/07/19 03:09:27;;;;;;;;;;;;;;;27.00;48.35;99942.38;1773035;79;21645;-57
2021/07/19 03:11:53;;;;;;;;;;;;;;;27.00;48.35;99939.00;1776026;79;20272;-57
2021/07/19 03:14:20;;;;;;;;;;;;;;;27.01;48.37;99945.39;1775631;80;20257;-56
2021/07/19 03:16:47;;;;;;;;;;;;;;;27.00;48.40;99952.95;1771992;79;20261;-57
2021/07/19 03:19:14;;;;;;;;;;;;;;;27.01;48.43;99950.97;1778100;79;20928;-56
2021/07/19 03:21:41;;;;;;;;;;;;;;;27.02;48.46;99957.58;1778150;79;20589;-57
2021/07/19 03:24:11;;;;;;;;;;;;;;;27.02;48.48;99956.19;1777964;79;20227;-56
2021/07/19 03:26:38;;;;;;;;;;;;;;;27.02;48.49;99958.98;1769797;79;20165;-56
2021/07/19 03:29:05;;;;;;;;;;;;;;;27.03;48.51;99973.13;1775977;79;20144;-56
2021/07/19 03:31:32;;;;;;;;;;;;;;;27.03;48.56;99973.74;1777768;79;21091;-56
2021/07/19 03:33:58;;;;;;;;;;;;;;;27.03;48.58;99979.33;1778008;79;20666;-57
2021/07/19 03:36:25;;;;;;;;;;;;;;;27.03;48.58;99973.74;1773419;79;20273;-56
2021/07/19 03:38:51;;;;;;;;;;;;;;;27.04;48.62;99963.57;1776247;79;20211;-56
2021/07/19 03:41:17;;;;;;;;;;;;;;;27.04;48.65;99960.78;1773151;79;21129;-56
2021/07/19 03:43:43;;;;;;;;;;;;;;;27.03;48.66;99963.35;1776045;79;22061;-56
2021/07/19 03:46:09;;;;;;;;;;;;;;;27.05;48.68;99973.56;1775829;79;20229;-56
2021/07/19 03:48:35;;;;;;;;;;;;;;;27.07;48.70;99963.42;1775091;79;20236;-56
2021/07/19 03:51:02;;;;;;;;;;;;;;;27.05;48.73;99945.64;1769076;79;20462;-57
2021/07/19 03:53:28;;;;;;;;;;;;;;;27.07;48.74;99939.69;1775761;79;20239;-56
2021/07/19 03:55:54;;;;;;;;;;;;;;;27.07;48.77;99938.29;1770377;79;21372;-56
2021/07/19 03:58:20;;;;;;;;;;;;;;;27.06;48.81;99937.48;1773940;79;20609;-56
2021/07/19 04:00:46;;;;;;;;;;;;;;;27.07;48.82;99945.27;1772141;79;20217;-56
2021/07/19 04:03:26;;;;;;;;;;;;;;;27.08;48.86;99951.04;1777149;79;20221;-55
2021/07/19 04:06:02;;;;;;;;;;;;;;;27.08;48.89;99949.64;1771372;79;20231;-57
2021/07/19 04:08:31;;;;;;;;;;;;;;;27.08;48.90;99942.08;1775650;79;20571;-57
2021/07/19 04:10:56;;;;;;;;;;;;;;;27.08;48.92;99941.27;1776049;79;20583;-56
2021/07/19 04:13:22;;;;;;;;;;;;;;;27.08;48.96;99938.48;1774962;79;20199;-58
2021/07/19 04:15:50;;;;;;;;;;;;;;;27.08;48.97;99936.48;1772895;79;20218;-58
2021/07/19 04:18:18;;;;;;;;;;;;;;;27.08;49.03;99928.12;1772906;79;20229;-58
2021/07/19 04:20:45;;;;;;;;;;;;;;;27.09;49.17;99929.73;1775090;79;21734;-60
2021/07/19 04:23:11;;;;;;;;;;;;;;;27.09;49.29;99938.70;1773436;79;20266;-57
2021/07/19 04:25:38;;;;;;;;;;;;;;;27.09;49.41;99934.51;1777082;79;20455;-56
2021/07/19 04:28:05;;;;;;;;;;;;;;;27.08;49.50;99935.09;1772789;79;20622;-56
2021/07/19 04:30:36;;;;;;;;;;;;;;;27.09;49.56;99938.11;1779063;79;20219;-56
2021/07/19 04:33:03;;;;;;;;;;;;;;;27.09;49.60;99940.90;1778288;79;21186;-57
2021/07/19 04:35:29;;;;;;;;;;;;;;;27.09;49.71;99943.69;1774779;79;20423;-56
2021/07/19 04:37:55;;;;;;;;;;;;;;;27.10;49.75;99952.88;1776017;79;20109;-59
2021/07/19 04:40:24;;;;;;;;;;;;;;;27.08;49.74;99961.62;1773894;79;20252;-59
2021/07/19 04:42:50;;;;;;;;;;;;;;;27.10;49.69;99961.25;1778539;79;20195;-60
2021/07/19 04:45:18;;;;;;;;;;;;;;;27.11;49.67;99954.48;1778500;79;21390;-60
2021/07/19 04:47:44;;;;;;;;;;;;;;;27.11;49.65;99940.53;1778748;79;20185;-61
2021/07/19 04:50:13;;;;;;;;;;;;;;;27.12;49.64;99944.31;1783169;79;20273;-59
2021/07/19 04:52:39;;;;;;;;;;;;;;;27.13;49.63;99933.95;1785120;79;20125;-59
2021/07/19 04:55:06;;;;;;;;;;;;;;;27.15;49.63;99936.59;1781980;79;20289;-59
2021/07/19 04:57:32;;;;;;;;;;;;;;;27.16;49.64;99932.59;1779338;79;21067;-60
2021/07/19 04:59:58;;;;;;;;;;;;;;;27.17;49.64;99920.83;1786430;79;20732;-61
2021/07/19 05:02:26;;;;;;;;;;;;;;;27.17;49.64;99916.05;1783571;79;20265;-55
2021/07/19 05:04:52;;;;;;;;;;;;;;;27.18;49.68;99911.27;1778489;79;20692;-55
2021/07/19 05:07:19;;;;;;;;;;;;;;;27.19;49.74;99922.66;1778776;79;20160;-56
2021/07/19 05:09:46;;;;;;;;;;;;;;;27.19;49.88;99923.47;1778002;79;21318;-55
2021/07/19 05:12:15;;;;;;;;;;;;;;;27.19;49.93;99922.07;1780762;79;20201;-55
2021/07/19 05:14:41;;;;;;;;;;;;;;;27.19;49.98;99910.09;1776463;79;20360;-56
2021/07/19 05:17:10;;;;;;;;;;;;;;;27.19;50.07;99912.89;1774403;79;20382;-55
2021/07/19 05:19:39;;;;;;;;;;;;;;;27.18;50.11;99905.09;1774957;79;20183;-56
2021/07/19 05:22:09;;;;;;;;;;;;;;;27.19;50.11;99912.89;1779250;79;20577;-56
2021/07/19 05:24:35;;;;;;;;;;;;;;;27.19;50.09;99925.45;1780866;79;20175;-56
2021/07/19 05:27:01;;;;;;;;;;;;;;;27.19;50.09;99932.43;1782836;79;20150;-55
2021/07/19 05:29:27;;;;;;;;;;;;;;;27.19;50.19;99938.83;1782298;79;20213;-55
2021/07/19 05:31:53;;;;;;;;;;;;;;;27.19;50.26;99927.66;1776731;79;20249;-55
2021/07/19 05:34:20;;;;;;;;;;;;;;;27.21;50.25;99937.02;1777263;79;21206;-55
2021/07/19 05:36:46;;;;;;;;;;;;;;;27.20;50.24;99943.20;1779993;79;20217;-55
2021/07/19 05:39:12;;;;;;;;;;;;;;;27.21;50.23;99945.40;1775475;80;20445;-55
2021/07/19 05:41:38;;;;;;;;;;;;;;;27.22;50.25;99951.20;1784845;79;20823;-55
2021/07/19 05:44:04;;;;;;;;;;;;;;;27.23;50.28;99963.41;1783143;79;20202;-55
2021/07/19 05:46:30;;;;;;;;;;;;;;;27.23;50.30;99977.95;1785168;80;21488;-55
2021/07/19 05:48:56;;;;;;;;;;;;;;;27.23;50.31;99987.14;1781113;79;20378;-55
2021/07/19 05:51:21;;;;;;;;;;;;;;;27.23;50.36;99981.55;1782722;79;20170;-55
2021/07/19 05:53:47;;;;;;;;;;;;;;;27.25;50.37;99969.98;1780809;79;20227;-55
2021/07/19 05:56:13;;;;;;;;;;;;;;;27.25;50.39;99981.95;1780378;80;20226;-55
2021/07/19 05:58:39;;;;;;;;;;;;;;;27.26;50.43;99992.54;1777143;79;21130;-55
2021/07/19 06:01:05;;;;;;;;;;;;;;;27.25;50.45;99990.34;1782310;79;20166;-55
2021/07/19 06:03:31;;;;;;;;;;;;;;;27.26;50.47;99999.52;1781705;79;20784;-55
2021/07/19 06:05:57;;;;;;;;;;;;;;;27.26;50.52;100005.11;1779763;79;20236;-55
2021/07/19 06:08:23;;;;;;;;;;;;;;;27.25;50.53;100007.69;1779081;79;20198;-55
2021/07/19 06:10:49;;;;;;;;;;;;;;;27.25;50.59;100002.91;1781730;79;21104;-55
2021/07/19 06:13:14;;;;;;;;;;;;;;;27.26;50.59;99995.33;1788703;79;20717;-55
2021/07/19 06:15:40;;;;;;;;;;;;;;;27.26;50.63;99984.97;1789338;79;20261;-55
2021/07/19 06:18:06;;;;;;;;;;;;;;;27.25;50.67;99981.95;1785727;79;20174;-55
2021/07/19 06:20:32;;;;;;;;;;;;;;;27.26;50.68;99972.98;1787958;79;20140;-55
2021/07/19 06:23:02;;;;;;;;;;;;;;;27.25;50.72;99972.18;1786660;79;20934;-55
2021/07/19 06:25:29;;;;;;;;;;;;;;;27.26;50.75;99972.40;1787317;79;20501;-55
2021/07/19 06:27:55;;;;;;;;;;;;;;;27.25;50.77;99962.41;1787819;79;20191;-55
2021/07/19 06:30:22;;;;;;;;;;;;;;;27.25;50.80;99962.41;1785773;79;20148;-55
2021/07/19 06:32:47;;;;;;;;;;;;;;;27.26;50.83;99959.03;1787086;79;20207;-55
2021/07/19 06:35:13;;;;;;;;;;;;;;;27.27;50.86;99957.84;1784442;79;21099;-55
2021/07/19 06:37:39;;;;;;;;;;;;;;;27.28;50.90;99953.06;1788702;80;20473;-55
2021/07/19 06:40:06;;;;;;;;;;;;;;;27.29;50.90;99955.45;1784910;79;20214;-55
2021/07/19 06:42:32;;;;;;;;;;;;;;;27.29;50.91;99965.23;1789294;79;20469;-50
2021/07/19 06:44:58;;;;;;;;;;;;;;;27.30;50.95;99976.63;1778877;79;20720;-54
2021/07/19 06:47:25;;;;;;;;;;;;;;;27.30;50.97;99982.80;1777329;79;21857;-55
2021/07/19 06:49:51;;;;;;;;;;;;;;;27.31;50.97;99989.41;1773810;80;20792;-54
2021/07/19 06:52:17;;;;;;;;;;;;;;;27.31;51.02;100001.98;1775753;79;20166;-55
2021/07/19 06:54:42;;;;;;;;;;;;;;;27.28;51.04;100006.13;1776065;80;20240;-55
2021/07/19 06:57:08;;;;;;;;;;;;;;;27.31;51.08;99996.39;1775138;79;20284;-55
2021/07/19 06:59:34;;;;;;;;;;;;;;;27.31;51.09;99971.84;1778770;79;21170;-55
2021/07/19 07:02:00;;;;;;;;;;;;;;;27.31;51.12;99951.70;1777204;80;20740;-55
2021/07/19 07:04:26;;;;;;;;;;;;;;;27.30;51.16;99961.84;1777389;79;20173;-55
2021/07/19 07:06:52;;;;;;;;;;;;;;;27.30;51.20;99980.00;1778034;79;20160;-55
2021/07/19 07:09:19;;;;;;;;;;;;;;;27.30;51.22;99982.80;1776725;79;20210;-55
2021/07/19 07:11:45;;;;;;;;;;;;;;;27.30;51.24;99974.42;1779064;79;21318;-56
2021/07/19 07:14:10;;;;;;;;;;;;;;;27.30;51.28;99962.66;1774677;79;20268;-55
2021/07/19 07:16:36;;;;;;;;;;;;;;;27.31;51.30;99963.47;1771444;79;20295;-55
2021/07/19 07:19:03;;;;;;;;;;;;;;;27.30;51.33;99966.04;1777909;79;21895;-56
2021/07/19 07:21:32;;;;;;;;;;;;;;;27.32;51.34;99986.03;1774964;79;20160;-56
2021/07/19 07:23:58;;;;;;;;;;;;;;;27.33;51.37;99990.44;1773769;79;21975;-56
2021/07/19 07:26:26;;;;;;;;;;;;;;;27.33;51.39;100001.61;1774021;79;20212;-56
2021/07/19 07:28:54;;;;;;;;;;;;;;;27.33;51.41;100009.36;1776318;79;20207;-56
2021/07/19 07:31:26;;;;;;;;;;;;;;;27.34;51.43;100013.77;1769814;79;20280;-56
2021/07/19 07:33:48;;;;;;;;;;;;;;;27.34;51.43;100010.98;1773953;79;20137;-56
2021/07/19 07:36:14;;;;;;;;;;;;;;;27.34;51.44;100012.38;1773379;79;21161;-55
2021/07/19 07:38:40;;;;;;;;;;;;;;;27.34;51.51;100009.58;1748565;79;20218;-56
2021/07/19 07:41:06;;;;;;;;;;;;;;;27.34;51.56;100008.78;1779480;79;20815;-56
2021/07/19 07:43:32;;;;;;;;;;;;;;;27.35;51.60;100010.39;1776748;79;20683;-56
2021/07/19 07:45:58;;;;;;;;;;;;;;;27.34;51.64;100008.78;1772697;79;20171;-56
2021/07/19 07:48:24;;;;;;;;;;;;;;;27.34;51.69;100001.20;1779128;79;21037;-55
2021/07/19 07:50:50;;;;;;;;;;;;;;;27.35;51.72;99999.22;1776540;79;20232;-55
2021/07/19 07:53:16;;;;;;;;;;;;;;;27.34;51.76;100001.20;1778109;79;20192;-56
2021/07/19 07:55:41;;;;;;;;;;;;;;;27.35;51.78;99997.82;1773029;79;20241;-55
2021/07/19 07:58:08;;;;;;;;;;;;;;;27.34;51.82;100001.20;1775149;79;20309;-56
2021/07/19 08:00:34;;;;;;;;;;;;;;;27.34;51.84;99994.81;1776070;79;20999;-56
2021/07/19 08:03:00;;;;;;;;;;;;;;;27.33;51.90;99996.80;1777908;79;20167;-55
2021/07/19 08:05:26;;;;;;;;;;;;;;;27.33;51.92;99995.40;1775636;79;20311;-56
2021/07/19 08:07:52;;;;;;;;;;;;;;;27.33;51.89;99990.44;1769836;79;21084;-55
2021/07/19 08:10:18;;;;;;;;;;;;;;;27.34;51.87;99987.23;1777860;79;20589;-56
2021/07/19 08:12:44;;;;;;;;;;;;;;;27.35;51.87;99986.06;1776101;79;21115;-56
2021/07/19 08:15:12;;;;;;;;;;;;;;;27.36;51.87;99981.28;1776954;79;20271;-56
2021/07/19 08:17:38;;;;;;;;;;;;;;;27.37;51.89;99981.50;1779443;79;20528;-56
2021/07/19 08:20:05;;;;;;;;;;;;;;;27.37;51.88;99978.08;1777571;79;20658;-56
2021/07/19 08:22:31;;;;;;;;;;;;;;;27.37;51.87;99973.12;1774307;79;20462;-56
2021/07/19 08:24:58;;;;;;;;;;;;;;;27.38;51.86;99976.09;1776956;79;21720;-58
2021/07/19 08:27:25;;;;;;;;;;;;;;;27.40;51.86;99973.73;1774557;79;20122;-57
2021/07/19 08:29:51;;;;;;;;;;;;;;;27.40;51.84;99968.95;1775927;79;20169;-57
2021/07/19 08:32:17;;;;;;;;;;;;;;;27.41;51.80;99971.16;1770517;79;20296;-57
2021/07/19 08:34:45;;;;;;;;;;;;;;;27.42;51.77;99971.34;1774266;79;20469;-58
2021/07/19 08:37:13;;;;;;;;;;;;;;;27.44;51.75;99970.38;1777659;79;21113;-58
2021/07/19 08:39:40;;;;;;;;;;;;;;;27.44;51.75;99971.78;1770104;79;21590;-58
2021/07/19 08:42:14;;;;;;;;;;;;;;;27.44;51.71;99974.57;1777204;79;20207;-58
2021/07/19 08:44:40;;;;;;;;;;;;;;;27.45;51.72;99974.79;1778519;79;20135;-57
2021/07/19 08:47:09;;;;;;;;;;;;;;;27.45;51.72;99974.20;1775037;79;20175;-58
2021/07/19 08:49:35;;;;;;;;;;;;;;;27.46;51.69;99977.18;1778049;79;21133;-58
2021/07/19 08:52:01;;;;;;;;;;;;;;;27.48;51.66;99969.86;1777120;79;20137;-57
2021/07/19 08:54:27;;;;;;;;;;;;;;;27.49;51.58;99972.86;1774533;79;20468;-58
2021/07/19 08:56:54;;;;;;;;;;;;;;;27.49;51.55;99979.27;1774554;79;20334;-57
2021/07/19 08:59:20;;;;;;;;;;;;;;;27.50;51.47;99974.45;1777786;79;20685;-58
2021/07/19 09:01:46;;;;;;;;;;;;;;;27.50;51.40;99976.66;1777440;79;21168;-58
2021/07/19 09:04:14;;;;;;;;;;;;;;;27.51;51.30;99979.66;1780122;79;20740;-57
2021/07/19 09:06:40;;;;;;;;;;;;;;;27.51;51.18;99978.27;1777788;79;20385;-57
2021/07/19 09:09:06;;;;;;;;;;;;;;;27.51;51.09;99972.67;1777002;79;20151;-58
2021/07/19 09:11:32;;;;;;;;;;;;;;;27.52;51.00;99972.89;1778009;79;20170;-57
2021/07/19 09:14:03;;;;;;;;;;;;;;;27.53;50.89;99971.72;1780541;79;21080;-58
2021/07/19 09:16:45;;;;;;;;;;;;;;;27.54;50.80;99971.90;1777517;79;20240;-59
2021/07/19 09:19:19;;;;;;;;;;;;;;;27.55;50.68;99969.91;1776374;79;20195;-58
2021/07/19 09:21:47;;;;;;;;;;;;;;;27.55;50.57;99969.32;1775337;79;20410;-58
2021/07/19 09:24:16;;;;;;;;;;;;;;;27.56;50.47;99961.75;1777263;79;20736;-58
2021/07/19 09:26:43;;;;;;;;;;;;;;;27.57;50.36;99955.78;1777301;79;21048;-58
2021/07/19 09:29:11;;;;;;;;;;;;;;;27.57;50.26;99959.17;1771212;79;20141;-58
2021/07/19 09:31:39;;;;;;;;;;;;;;;27.58;50.15;99956.59;1770916;79;20220;-57
2021/07/19 09:34:18;;;;;;;;;;;;;;;27.51;49.70;99955.91;1771627;79;20231;-54
2021/07/19 09:37:00;;;;;;;;;;;;;;;27.42;49.45;99957.38;1773112;79;20591;-55
2021/07/19 09:39:27;;;;;;;;;;;;;;;27.35;49.35;99946.95;1715185;80;20991;-56
2021/07/19 09:42:06;;;;;;;;;;;;;;;27.32;49.29;99953.31;1778206;79;20213;-55
2021/07/19 09:44:31;;;;;;;;;;;;;;;27.30;49.25;99950.09;1775562;79;20183;-56
2021/07/19 09:47:01;;;;;;;;;;;;;;;27.30;49.28;99950.67;1775709;79;20732;-55
2021/07/19 09:49:29;;;;;;;;;;;;;;;27.30;49.29;99960.45;1778160;79;20259;-55
2021/07/19 09:52:04;;;;;;;;;;;;;;;27.30;49.27;99946.48;1773524;79;21194;-56
2021/07/19 09:54:38;;;;;;;;;;;;;;;27.31;49.27;99948.91;1779772;79;20393;-56
2021/07/19 09:57:04;;;;;;;;;;;;;;;27.32;49.27;99942.73;1775565;79;20167;-56
2021/07/19 09:59:31;;;;;;;;;;;;;;;27.33;49.27;99949.93;1777836;79;20685;-55
2021/07/19 10:01:57;;;;;;;;;;;;;;;27.33;49.26;99944.34;1777467;79;20173;-55
2021/07/19 10:04:23;;;;;;;;;;;;;;;27.34;49.27;99950.92;1776865;79;21532;-56
2021/07/19 10:06:54;;;;;;;;;;;;;;;27.35;49.24;99939.16;1776870;79;20218;-56
2021/07/19 10:09:23;;;;;;;;;;;;;;;27.36;49.25;99937.98;1769709;79;20205;-56
2021/07/19 10:11:54;;;;;;;;;;;;;;;27.36;49.24;99942.98;1775688;79;20885;-56
2021/07/19 10:14:25;;;;;;;;;;;;;;;27.37;49.25;99936.19;1772526;79;20325;-56
2021/07/19 10:16:51;;;;;;;;;;;;;;;27.38;49.26;99939.19;1772885;79;21082;-56
2021/07/19 10:19:17;;;;;;;;;;;;;;;27.40;49.25;99945.21;1774673;79;20387;-55
2021/07/19 10:21:43;;;;;;;;;;;;;;;27.41;49.24;99940.44;1774181;79;20804;-56
2021/07/19 10:24:09;;;;;;;;;;;;;;;27.43;49.23;99938.84;1773183;79;20547;-56
2021/07/19 10:26:36;;;;;;;;;;;;;;;27.45;49.26;99946.86;1776576;79;20270;-56
2021/07/19 10:29:03;;;;;;;;;;;;;;;27.47;49.27;99945.30;1777302;79;20968;-56
2021/07/19 10:31:29;;;;;;;;;;;;;;;27.48;49.26;99946.91;1774938;79;21707;-56
2021/07/19 10:33:57;;;;;;;;;;;;;;;27.49;49.26;99951.32;1780359;79;20183;-56
2021/07/19 10:36:33;;;;;;;;;;;;;;;27.50;49.28;99954.30;1775564;79;20215;-56
2021/07/19 10:39:00;;;;;;;;;;;;;;;27.52;49.27;99944.95;1775364;79;20232;-56
2021/07/19 10:41:26;;;;;;;;;;;;;;;27.53;49.29;99955.54;1774218;79;21977;-56
2021/07/19 10:44:06;;;;;;;;;;;;;;;27.54;49.30;99954.36;1771434;79;20140;-58
2021/07/19 10:46:33;;;;;;;;;;;;;;;27.55;49.31;99951.16;1776236;79;20208;-57
2021/07/19 10:49:13;;;;;;;;;;;;;;;27.57;49.31;99949.39;1771858;79;20687;-58
2021/07/19 10:51:44;;;;;;;;;;;;;;;27.58;49.31;99953.17;1777008;79;20181;-58
2021/07/19 10:54:13;;;;;;;;;;;;;;;27.58;49.30;99947.59;1772301;79;21177;-58
2021/07/19 10:56:39;;;;;;;;;;;;;;;27.58;49.31;99940.59;1769818;79;20627;-58
2021/07/19 10:59:06;;;;;;;;;;;;;;;27.58;49.32;99945.41;1771838;79;20182;-57
2021/07/19 11:01:32;;;;;;;;;;;;;;;27.58;49.36;99932.84;1773336;79;20137;-57
2021/07/19 11:03:58;;;;;;;;;;;;;;;27.59;49.36;99928.83;1775155;79;20276;-58
2021/07/19 11:06:38;;;;;;;;;;;;;;;27.61;49.38;99930.66;1775020;79;21770;-57
2021/07/19 11:09:09;;;;;;;;;;;;;;;27.63;49.40;99922.09;1777604;79;20312;-58
2021/07/19 11:11:37;;;;;;;;;;;;;;;27.66;49.41;99927.52;1779461;79;20382;-58
2021/07/19 11:14:05;;;;;;;;;;;;;;;27.66;49.40;99922.73;1786154;78;20230;-61
2021/07/19 11:16:42;;;;;;;;;;;;;;;27.66;49.41;99917.14;1757449;80;20174;-58
2021/07/19 11:19:08;;;;;;;;;;;;;;;27.67;49.43;99917.33;1783372;78;21135;-59
2021/07/19 11:21:34;;;;;;;;;;;;;;;27.66;49.41;99913.55;1783400;79;20194;-59
2021/07/19 11:24:15;;;;;;;;;;;;;;;27.61;49.30;99909.70;1785558;79;20417;-59
2021/07/19 11:26:53;;;;;;;;;;;;;;;27.55;49.28;99907.85;1766534;80;20133;-58
2021/07/19 11:29:33;;;;;;;;;;;;;;;27.48;49.25;99902.22;1756996;80;20383;-59
2021/07/19 11:32:28;;;;;;;;;;;;;;;27.43;49.23;99900.33;1782713;78;21157;-58
2021/07/19 11:35:06;;;;;;;;;;;;;;;27.39;49.18;99903.69;1761948;80;20194;-59
2021/07/19 11:37:33;;;;;;;;;;;;;;;27.33;49.14;99898.26;1770392;78;20479;-51
2021/07/19 11:40:00;;;;;;;;;;;;;;;27.31;49.21;99903.41;1770098;78;21859;-56
2021/07/19 11:42:29;;;;;;;;;;;;;;;27.33;49.20;99891.28;1772190;78;20249;-56
2021/07/19 11:45:04;;;;;;;;;;;;;;;27.36;49.16;99896.89;1766796;78;21236;-57
2021/07/19 11:47:31;;;;;;;;;;;;;;;27.40;49.15;99902.50;1772709;78;21557;-57
2021/07/19 11:50:02;;;;;;;;;;;;;;;27.42;49.05;99901.51;1765759;80;20246;-55
2021/07/19 11:52:29;;;;;;;;;;;;;;;27.44;49.01;99901.35;1767759;80;20421;-56
2021/07/19 11:54:54;;;;;;;;;;;;;;;27.47;48.96;99903.39;1767734;80;20164;-57
2021/07/19 11:57:20;;;;;;;;;;;;;;;27.48;48.87;99896.63;1770047;80;21734;-56
2021/07/19 11:59:46;;;;;;;;;;;;;;;27.51;48.80;99900.63;1771165;80;20196;-57
2021/07/19 12:02:12;;;;;;;;;;;;;;;27.54;48.75;99894.29;1772179;80;20233;-59
2021/07/19 12:04:41;;;;;;;;;;;;;;;27.55;48.65;99888.88;1766990;80;20974;-57
2021/07/19 12:07:08;;;;;;;;;;;;;;;27.56;48.57;99889.09;1766203;80;20201;-58
2021/07/19 12:09:35;;;;;;;;;;;;;;;27.57;48.48;99882.33;1768421;79;21034;-58
2021/07/19 12:12:02;;;;;;;;;;;;;;;27.58;48.41;99879.13;1741809;80;20205;-58
2021/07/19 12:14:30;;;;;;;;;;;;;;;27.60;48.31;99882.94;1771530;80;20103;-54
2021/07/19 12:16:56;;;;;;;;;;;;;;;27.61;48.25;99870.58;1767893;80;20769;-53
2021/07/19 12:19:22;;;;;;;;;;;;;;;27.62;48.16;99873.59;1771922;80;20171;-54
2021/07/19 12:21:51;;;;;;;;;;;;;;;27.63;48.06;99870.98;1763331;80;21126;-51
2021/07/19 12:24:17;;;;;;;;;;;;;;;27.63;47.98;99867.59;1766510;80;20169;-51
2021/07/19 12:26:50;;;;;;;;;;;;;;;27.65;47.89;99872.81;1770650;79;20428;-54
2021/07/19 12:29:26;;;;;;;;;;;;;;;27.63;47.75;99862.01;1765714;80;20454;-55
2021/07/19 12:31:59;;;;;;;;;;;;;;;27.56;47.60;99861.16;1768190;80;20138;-53
2021/07/19 12:34:33;;;;;;;;;;;;;;;27.46;47.58;99860.44;1768987;80;21098;-54
2021/07/19 12:37:04;;;;;;;;;;;;;;;27.38;47.59;99865.17;1776469;80;20412;-55
2021/07/19 12:39:41;;;;;;;;;;;;;;;27.32;47.61;99851.96;1769707;80;20124;-53
2021/07/19 12:42:11;;;;;;;;;;;;;;;27.25;47.62;99842.31;1764659;80;20173;-55
2021/07/19 12:44:37;;;;;;;;;;;;;;;27.21;47.61;99844.28;1766253;80;20133;-58
2021/07/19 12:47:03;;;;;;;;;;;;;;;27.16;47.58;99847.42;1771254;80;21089;-58